createdAt,value
2018-11-13T00:01:02.113Z,90.39
2018-11-13T00:03:33.470Z,90.34
2018-11-13T00:06:05.078Z,90.32
2018-11-13T00:08:40.794Z,90.23
2018-11-13T00:11:12.992Z,90.15
2018-11-13T00:13:47.510Z,90.18
2018-11-13T00:16:19.627Z,90.14
2018-11-13T00:18:51.760Z,90.14
2018-11-13T00:21:22.930Z,90.14
2018-11-13T00:23:54.034Z,90.16
2018-11-13T00:26:25.458Z,90.13
2018-11-13T00:28:56.976Z,90.23
2018-11-13T00:31:28.489Z,90.29
2018-11-13T00:34:00.181Z,90.38
2018-11-13T00:36:31.663Z,90.37
2018-11-13T00:39:02.784Z,90.36
2018-11-13T00:41:34.702Z,90.28
2018-11-13T00:44:06.580Z,90.30
2018-11-13T00:46:38.400Z,90.29
2018-11-13T00:49:09.905Z,90.34
2018-11-13T00:51:42.007Z,90.42
2018-11-13T00:54:13.992Z,90.44
2018-11-13T00:56:45.033Z,90.45
2018-11-13T00:59:16.768Z,90.52
2018-11-13T01:01:48.583Z,90.59
2018-11-13T01:04:19.781Z,90.54
2018-11-13T01:06:51.190Z,90.57
2018-11-13T01:09:22.291Z,90.56
2018-11-13T01:11:54.142Z,90.56
2018-11-13T01:14:25.676Z,90.54
2018-11-13T01:16:58.128Z,90.47
2018-11-13T01:19:29.500Z,90.40
2018-11-13T01:22:07.192Z,90.37
2018-11-13T01:24:38.305Z,90.37
2018-11-13T01:27:09.417Z,90.32
2018-11-13T01:29:40.879Z,90.25
2018-11-13T01:32:11.891Z,90.24
2018-11-13T01:34:43.941Z,90.30
2018-11-13T01:37:15.418Z,90.36
2018-11-13T01:39:46.577Z,90.46
2018-11-13T01:42:18.055Z,90.50
2018-11-13T01:44:49.580Z,90.58
2018-11-13T01:47:20.599Z,90.66
2018-11-13T01:49:52.575Z,90.73
2018-11-13T01:52:23.576Z,90.79
2018-11-13T01:54:54.746Z,90.83
2018-11-13T01:57:26.023Z,90.86
2018-11-13T01:59:58.202Z,90.85
2018-11-13T02:02:29.354Z,90.81
2018-11-13T02:05:01.352Z,90.75
2018-11-13T02:07:32.378Z,90.74
2018-11-13T02:10:03.469Z,90.71
2018-11-13T02:12:35.764Z,90.67
2018-11-13T02:15:07.537Z,90.67
2018-11-13T02:17:39.107Z,90.73
2018-11-13T02:20:18.633Z,90.78
2018-11-13T02:22:49.740Z,90.83
2018-11-13T02:25:21.614Z,90.86
2018-11-13T02:27:52.646Z,90.87
2018-11-13T02:30:24.533Z,90.87
2018-11-13T02:32:56.305Z,90.87
2018-11-13T02:35:27.476Z,90.90
2018-11-13T02:38:00.255Z,90.90
2018-11-13T02:40:32.500Z,90.82
2018-11-13T02:43:03.657Z,90.84
2018-11-13T02:45:35.049Z,90.79
2018-11-13T02:48:06.316Z,90.76
2018-11-13T02:50:37.312Z,90.73
2018-11-13T02:53:09.094Z,90.73
2018-11-13T02:55:40.185Z,90.72
2018-11-13T02:58:11.537Z,90.75
2018-11-13T03:00:42.696Z,90.73
2018-11-13T03:03:14.178Z,90.75
2018-11-13T03:05:45.308Z,90.79
2018-11-13T03:08:16.823Z,90.77
2018-11-13T03:10:47.845Z,90.77
2018-11-13T03:13:18.873Z,90.72
2018-11-13T03:15:51.280Z,90.66
2018-11-13T03:18:24.532Z,90.59
2018-11-13T03:20:56.445Z,90.49
2018-11-13T03:23:27.491Z,90.43
2018-11-13T03:25:59.505Z,90.39
2018-11-13T03:28:31.272Z,90.45
2018-11-13T03:31:03.040Z,90.51
2018-11-13T03:33:33.996Z,90.48
2018-11-13T03:36:05.011Z,90.46
2018-11-13T03:38:37.465Z,90.46
2018-11-13T03:41:09.229Z,90.45
2018-11-13T03:43:40.302Z,90.35
2018-11-13T03:46:11.310Z,90.40
2018-11-13T03:48:42.737Z,90.40
2018-11-13T03:51:14.516Z,90.45
2018-11-13T03:53:47.297Z,90.46
2018-11-13T03:56:19.116Z,90.45
2018-11-13T03:58:52.576Z,90.53
2018-11-13T04:01:23.631Z,90.58
2018-11-13T04:03:54.770Z,90.65
2018-11-13T04:06:26.595Z,90.66
2018-11-13T04:08:58.251Z,90.67
2018-11-13T04:11:29.786Z,90.71
2018-11-13T04:14:00.845Z,90.71
2018-11-13T04:16:31.885Z,90.70
2018-11-13T04:19:05.700Z,90.67
2018-11-13T04:21:38.405Z,90.70
2018-11-13T04:24:09.452Z,90.70
2018-11-13T04:26:40.650Z,90.69
2018-11-13T04:29:12.619Z,90.63
2018-11-13T04:31:44.066Z,90.63
2018-11-13T04:34:15.093Z,90.59
2018-11-13T04:36:46.830Z,90.54
2018-11-13T04:39:18.113Z,90.52
2018-11-13T04:41:49.573Z,90.54
2018-11-13T04:44:20.956Z,90.54
2018-11-13T04:46:52.853Z,90.61
2018-11-13T04:49:24.197Z,90.69
2018-11-13T04:51:56.347Z,90.75
2018-11-13T04:54:29.101Z,90.85
2018-11-13T04:57:00.142Z,90.91
2018-11-13T04:59:31.948Z,91.10
2018-11-13T05:02:03.293Z,91.27
2018-11-13T05:04:34.344Z,91.49
2018-11-13T05:07:06.298Z,91.60
2018-11-13T05:09:38.695Z,91.71
2018-11-13T05:12:09.766Z,91.85
2018-11-13T05:14:40.767Z,91.93
2018-11-13T05:17:12.611Z,92.01
2018-11-13T05:19:44.461Z,92.06
2018-11-13T05:22:17.074Z,92.06
2018-11-13T05:24:48.150Z,92.06
2018-11-13T05:27:19.872Z,92.08
2018-11-13T05:29:50.954Z,92.07
2018-11-13T05:32:22.019Z,92.09
2018-11-13T05:34:55.896Z,92.13
2018-11-13T05:37:24.444Z,92.10
2018-11-13T05:39:55.487Z,92.08
2018-11-13T05:42:26.571Z,92.00
2018-11-13T05:44:57.615Z,91.90
2018-11-13T05:47:29.031Z,91.84
2018-11-13T05:50:02.106Z,91.81
2018-11-13T05:52:33.182Z,91.76
2018-11-13T05:55:04.228Z,91.74
2018-11-13T05:57:35.313Z,91.69
2018-11-13T06:00:09.129Z,91.60
2018-11-13T06:02:40.481Z,91.62
2018-11-13T06:05:12.262Z,91.62
2018-11-13T06:07:43.355Z,91.64
2018-11-13T06:10:14.866Z,91.61
2018-11-13T06:12:45.882Z,91.62
2018-11-13T06:15:17.562Z,91.59
2018-11-13T06:17:48.716Z,91.60
2018-11-13T06:20:19.737Z,91.63
2018-11-13T06:22:52.489Z,91.64
2018-11-13T06:25:24.387Z,91.66
2018-11-13T06:27:56.108Z,91.70
2018-11-13T06:30:27.469Z,91.65
2018-11-13T06:32:58.512Z,91.62
2018-11-13T06:35:31.200Z,91.62
2018-11-13T06:38:02.264Z,91.61
2018-11-13T06:40:34.092Z,91.58
2018-11-13T06:43:05.158Z,91.56
2018-11-13T06:45:36.573Z,91.55
2018-11-13T06:48:08.147Z,91.54
2018-11-13T06:50:39.185Z,91.53
2018-11-13T06:53:10.204Z,91.49
2018-11-13T06:55:43.896Z,91.49
2018-11-13T06:58:14.927Z,91.48
2018-11-13T07:00:47.320Z,91.44
2018-11-13T07:03:19.236Z,91.41
2018-11-13T07:05:50.404Z,91.39
2018-11-13T07:08:25.737Z,91.36
2018-11-13T07:10:57.168Z,91.30
2018-11-13T07:13:29.077Z,91.22
2018-11-13T07:16:00.533Z,91.15
2018-11-13T07:18:32.198Z,91.13
2018-11-13T07:21:04.433Z,91.11
2018-11-13T07:23:36.486Z,91.09
2018-11-13T07:26:08.515Z,91.07
2018-11-13T07:28:39.698Z,91.10
2018-11-13T07:31:11.784Z,91.12
2018-11-13T07:33:43.415Z,91.17
2018-11-13T07:57:23.738Z,90.71
2018-11-13T07:59:55.900Z,90.55
2018-11-13T08:02:27.634Z,90.43
2018-11-13T08:04:59.211Z,90.33
2018-11-13T08:07:35.342Z,90.26
2018-11-13T08:10:06.702Z,90.12
2018-11-13T08:12:38.814Z,90.06
2018-11-13T08:15:14.780Z,89.98
2018-11-13T08:17:46.752Z,89.92
2018-11-13T08:20:17.877Z,89.83
2018-11-13T08:22:49.666Z,89.74
2018-11-13T08:25:22.238Z,89.64
2018-11-13T08:27:55.705Z,89.53
2018-11-13T08:30:28.268Z,89.51
2018-11-13T08:32:59.589Z,89.51
2018-11-13T08:35:31.101Z,89.57
2018-11-13T08:38:03.005Z,89.62
2018-11-13T08:40:34.083Z,89.59
2018-11-13T08:43:06.189Z,89.58
2018-11-13T08:45:48.446Z,89.47
2018-11-13T08:48:19.516Z,89.31
2018-11-13T08:50:50.682Z,89.07
2018-11-13T08:53:24.289Z,88.74
2018-11-13T08:55:56.045Z,88.40
2018-11-13T08:58:29.257Z,88.18
2018-11-13T09:01:08.592Z,87.89
2018-11-13T09:03:40.797Z,87.72
2018-11-13T09:06:13.979Z,87.66
2018-11-13T09:08:45.186Z,87.60
2018-11-13T09:11:16.585Z,87.37
2018-11-13T09:13:49.765Z,87.15
2018-11-13T09:16:22.396Z,86.95
2018-11-13T09:18:56.081Z,87.16
2018-11-13T09:21:27.853Z,87.12
2018-11-13T09:23:59.247Z,86.98
2018-11-13T09:26:30.420Z,87.05
2018-11-13T09:29:03.167Z,86.78
2018-11-13T09:31:34.678Z,86.29
2018-11-13T09:34:06.785Z,86.12
2018-11-13T09:36:38.541Z,85.95
2018-11-13T09:39:11.902Z,85.98
2018-11-13T09:41:43.764Z,85.90
2018-11-13T09:44:14.783Z,85.65
2018-11-13T09:46:46.687Z,85.48
2018-11-13T09:49:17.794Z,85.12
2018-11-13T09:51:49.160Z,85.08
2018-11-13T09:54:20.293Z,85.01
2018-11-13T09:56:52.357Z,84.93
2018-11-13T09:59:24.073Z,85.05
2018-11-13T10:01:56.254Z,84.87
2018-11-13T10:04:27.613Z,84.67
2018-11-13T10:06:58.528Z,84.70
2018-11-13T10:09:29.581Z,84.72
2018-11-13T10:12:00.888Z,85.09
2018-11-13T10:14:31.906Z,85.30
2018-11-13T10:17:02.999Z,85.05
2018-11-13T10:19:35.222Z,84.80
2018-11-13T10:22:06.379Z,84.71
2018-11-13T10:24:37.768Z,84.62
2018-11-13T10:27:09.285Z,84.72
2018-11-13T10:29:41.432Z,84.70
2018-11-13T10:32:13.267Z,84.33
2018-11-13T10:34:44.645Z,84.22
2018-11-13T10:37:16.420Z,83.87
2018-11-13T10:39:47.483Z,83.01
2018-11-13T10:42:18.508Z,82.67
2018-11-13T10:44:50.115Z,82.73
2018-11-13T10:47:21.630Z,82.75
2018-11-13T10:49:53.571Z,82.63
2018-11-13T10:52:26.522Z,82.46
2018-11-13T10:54:59.281Z,82.16
2018-11-13T10:57:30.683Z,81.72
2018-11-13T11:00:02.229Z,81.57
2018-11-13T11:02:50.976Z,81.10
2018-11-13T11:05:22.424Z,80.47
2018-11-13T11:07:53.646Z,80.14
2018-11-13T11:10:25.202Z,79.75
2018-11-13T11:12:58.055Z,79.75
2018-11-13T11:15:29.221Z,78.56
2018-11-13T11:18:00.604Z,78.71
2018-11-13T11:20:32.034Z,78.87
2018-11-13T11:23:03.092Z,78.90
2018-11-13T11:25:34.681Z,77.87
2018-11-13T11:28:06.434Z,77.43
2018-11-13T11:30:37.988Z,77.52
2018-11-13T11:33:09.023Z,78.01
2018-11-13T11:35:40.045Z,77.81
2018-11-13T11:38:11.727Z,78.09
2018-11-13T11:40:42.739Z,78.46
2018-11-13T11:43:13.885Z,78.17
2018-11-13T11:45:44.877Z,77.37
2018-11-13T11:48:16.379Z,76.60
2018-11-13T11:50:48.078Z,75.49
2018-11-13T11:53:19.110Z,75.08
2018-11-13T11:55:50.144Z,75.07
2018-11-13T11:58:21.300Z,74.23
2018-11-13T12:00:52.652Z,74.13
2018-11-13T12:03:24.398Z,74.35
2018-11-13T12:05:55.706Z,74.77
2018-11-13T12:08:27.967Z,74.41
2018-11-13T12:10:59.019Z,74.58
2018-11-13T12:13:30.088Z,75.37
2018-11-13T12:16:01.744Z,75.50
2018-11-13T12:18:33.732Z,75.20
2018-11-13T12:21:04.730Z,74.97
2018-11-13T12:23:36.852Z,75.42
2018-11-13T12:26:08.979Z,75.24
2018-11-13T12:28:39.982Z,75.81
2018-11-13T12:31:11.282Z,76.68
2018-11-13T12:33:43.754Z,78.10
2018-11-13T12:36:15.040Z,78.79
2018-11-13T12:38:46.076Z,79.41
2018-11-13T12:41:17.496Z,80.34
2018-11-13T12:43:49.612Z,80.90
2018-11-13T12:46:21.025Z,81.42
2018-11-13T12:48:52.331Z,81.85
2018-11-13T12:51:40.733Z,82.20
2018-11-13T12:54:11.732Z,82.76
2018-11-13T12:56:44.444Z,83.48
2018-11-13T12:59:16.131Z,83.92
2018-11-13T13:01:47.223Z,83.78
2018-11-13T13:04:19.068Z,83.93
2018-11-13T13:06:50.156Z,84.28
2018-11-13T13:09:21.536Z,84.38
2018-11-13T13:11:53.499Z,84.57
2018-11-13T13:14:24.580Z,84.37
2018-11-13T13:16:55.595Z,84.45
2018-11-13T13:19:26.963Z,84.19
2018-11-13T13:21:58.264Z,84.09
2018-11-13T13:24:29.563Z,84.26
2018-11-13T13:27:00.623Z,84.30
2018-11-13T13:29:33.155Z,84.21
2018-11-13T13:32:04.214Z,84.02
2018-11-13T13:34:35.211Z,83.41
2018-11-13T13:37:06.340Z,82.66
2018-11-13T13:39:38.212Z,82.46
2018-11-13T13:42:09.255Z,82.05
2018-11-13T13:44:40.588Z,81.60
2018-11-13T13:47:11.711Z,81.12
2018-11-13T13:49:43.472Z,81.10
2018-11-13T13:52:15.195Z,81.29
2018-11-13T13:54:46.684Z,81.57
2018-11-13T13:57:18.111Z,81.19
2018-11-13T13:59:50.241Z,80.05
2018-11-13T14:02:21.071Z,79.09
2018-11-13T14:04:52.118Z,78.43
2018-11-13T14:07:23.320Z,78.24
2018-11-13T14:09:55.572Z,78.11
2018-11-13T14:12:28.324Z,77.10
2018-11-13T14:15:00.387Z,76.66
2018-11-13T14:17:32.261Z,76.70
2018-11-13T14:20:03.844Z,77.08
2018-11-13T14:22:34.902Z,76.57
2018-11-13T14:25:06.419Z,76.70
2018-11-13T14:27:37.641Z,76.96
2018-11-13T14:30:23.062Z,76.97
2018-11-13T14:32:55.318Z,76.99
2018-11-13T14:35:28.054Z,76.84
2018-11-13T14:37:59.130Z,77.13
2018-11-13T14:40:49.547Z,77.16
2018-11-13T14:43:20.567Z,77.36
2018-11-13T14:45:51.713Z,77.00
2018-11-13T14:48:22.726Z,76.57
2018-11-13T14:50:54.588Z,76.67
2018-11-13T14:53:27.147Z,76.37
2018-11-13T14:55:58.157Z,76.36
2018-11-13T14:58:29.155Z,76.22
2018-11-13T15:01:00.619Z,76.41
2018-11-13T15:03:31.611Z,76.81
2018-11-13T15:06:02.657Z,77.21
2018-11-13T15:08:34.663Z,76.99
2018-11-13T15:11:05.518Z,77.01
2018-11-13T15:13:36.549Z,77.15
2018-11-13T15:16:07.566Z,77.36
2018-11-13T15:18:38.949Z,77.34
2018-11-13T15:21:10.575Z,77.51
2018-11-13T15:23:42.259Z,77.63
2018-11-13T15:26:13.415Z,77.73
2018-11-13T15:28:46.071Z,77.85
2018-11-13T15:31:17.381Z,77.79
2018-11-13T15:33:48.408Z,77.79
2018-11-13T15:36:19.458Z,77.93
2018-11-13T15:38:50.791Z,78.11
2018-11-13T15:41:22.626Z,77.99
2018-11-13T15:43:54.053Z,78.20
2018-11-13T15:46:25.890Z,78.17
2018-11-13T15:48:57.349Z,77.99
2018-11-13T15:51:28.425Z,77.79
2018-11-13T15:54:00.655Z,77.95
2018-11-13T15:56:32.300Z,77.75
2018-11-13T15:59:14.623Z,77.64
2018-11-13T16:01:45.521Z,77.39
2018-11-13T16:04:16.807Z,77.02
2018-11-13T16:06:48.880Z,77.23
2018-11-13T16:09:20.137Z,77.19
2018-11-13T16:11:51.288Z,77.33
2018-11-13T16:14:23.367Z,77.24
2018-11-13T16:16:54.700Z,76.99
2018-11-13T16:19:26.437Z,77.25
2018-11-13T16:21:57.453Z,77.26
2018-11-13T16:24:29.412Z,77.21
2018-11-13T16:27:01.078Z,77.30
2018-11-13T16:29:33.157Z,77.21
2018-11-13T16:32:04.483Z,77.38
2018-11-13T16:34:35.522Z,77.67
2018-11-13T16:37:07.282Z,77.72
2018-11-13T16:39:39.311Z,77.59
2018-11-13T16:42:10.563Z,77.65
2018-11-13T16:44:42.283Z,77.54
2018-11-13T16:47:13.442Z,77.66
2018-11-13T16:49:45.221Z,77.81
2018-11-13T16:52:17.193Z,78.06
2018-11-13T16:54:51.706Z,78.28
2018-11-13T16:57:23.004Z,78.28
2018-11-13T16:59:54.079Z,78.52
2018-11-13T17:02:25.529Z,78.64
2018-11-13T17:05:16.276Z,78.69
2018-11-13T17:08:08.084Z,78.78
2018-11-13T17:10:43.461Z,78.78
2018-11-13T17:13:16.534Z,78.86
2018-11-13T17:15:57.149Z,78.94
2018-11-13T17:18:28.285Z,79.02
2018-11-13T17:20:59.773Z,79.00
2018-11-13T17:23:31.889Z,79.00
2018-11-13T17:26:02.685Z,79.12
2018-11-13T17:28:34.042Z,79.02
2018-11-13T17:31:05.290Z,79.08
2018-11-13T17:33:36.360Z,79.07
2018-11-13T17:36:07.901Z,79.15
2018-11-13T17:38:39.263Z,78.96
2018-11-13T17:41:10.631Z,78.95
2018-11-13T17:43:44.521Z,78.78
2018-11-13T17:46:15.944Z,78.88
2018-11-13T17:48:47.360Z,79.00
2018-11-13T17:51:19.192Z,79.22
2018-11-13T17:53:50.523Z,79.50
2018-11-13T17:56:21.586Z,79.62
2018-11-13T17:58:53.484Z,79.76
2018-11-13T18:01:24.528Z,79.91
2018-11-13T18:03:55.659Z,79.99
2018-11-13T18:06:27.939Z,80.03
2018-11-13T18:08:59.073Z,80.00
2018-11-13T18:11:30.156Z,79.97
2018-11-13T18:14:01.331Z,79.91
2018-11-13T18:16:32.302Z,79.93
2018-11-13T18:19:04.603Z,79.96
2018-11-13T18:21:39.851Z,79.91
2018-11-13T18:24:11.034Z,79.78
2018-11-13T18:26:42.137Z,79.82
2018-11-13T18:29:13.538Z,79.91
2018-11-13T18:31:44.896Z,79.97
2018-11-13T18:34:15.939Z,80.06
2018-11-13T18:36:47.008Z,80.26
2018-11-13T18:39:18.059Z,80.46
2018-11-13T18:41:49.179Z,80.58
2018-11-13T18:44:20.414Z,80.58
2018-11-13T18:46:52.569Z,80.61
2018-11-13T18:49:24.487Z,80.63
2018-11-13T18:51:55.479Z,80.50
2018-11-13T18:54:26.682Z,80.32
2018-11-13T18:56:57.684Z,80.32
2018-11-13T18:59:29.145Z,80.30
2018-11-13T19:02:00.436Z,80.22
2018-11-13T19:04:31.590Z,80.12
2018-11-13T19:07:02.617Z,80.15
2018-11-13T19:09:34.016Z,80.29
2018-11-13T19:12:05.594Z,80.17
2018-11-13T19:14:36.594Z,80.15
2018-11-13T19:17:08.355Z,80.16
2018-11-13T19:19:39.234Z,80.12
2018-11-13T19:22:10.373Z,80.11
2018-11-13T19:24:41.452Z,80.10
2018-11-13T19:27:12.476Z,80.21
2018-11-13T19:29:44.117Z,80.18
2018-11-13T19:32:15.438Z,80.20
2018-11-13T19:34:47.599Z,80.06
2018-11-13T19:37:20.049Z,80.16
2018-11-13T19:39:51.156Z,80.31
2018-11-13T19:42:22.539Z,80.44
2018-11-13T19:44:54.653Z,80.61
2018-11-13T19:47:27.232Z,80.76
2018-11-13T19:49:58.583Z,80.84
2018-11-13T19:52:29.601Z,80.84
2018-11-13T19:55:01.059Z,80.93
2018-11-13T19:57:32.100Z,81.02
2018-11-13T20:00:04.026Z,81.05
2018-11-13T20:02:35.077Z,81.10
2018-11-13T20:05:14.533Z,81.17
2018-11-13T20:07:45.561Z,81.24
2018-11-13T20:10:20.771Z,81.32
2018-11-13T20:12:53.227Z,81.38
2018-11-13T20:15:25.298Z,81.45
2018-11-13T20:17:56.452Z,81.53
2018-11-13T20:20:31.639Z,81.61
2018-11-13T20:23:04.408Z,81.70
2018-11-13T20:25:36.237Z,81.76
2018-11-13T20:28:07.346Z,81.81
2018-11-13T20:30:39.947Z,81.88
2018-11-13T20:33:11.314Z,81.98
2018-11-13T20:35:42.701Z,82.11
2018-11-13T20:38:13.776Z,82.25
2018-11-13T20:40:45.486Z,82.33
2018-11-13T20:43:17.033Z,82.45
2018-11-13T20:45:47.978Z,82.55
2018-11-13T20:48:19.051Z,82.59
2018-11-13T20:50:50.398Z,82.64
2018-11-13T20:53:21.507Z,82.74
2018-11-13T20:55:52.577Z,82.85
2018-11-13T20:58:23.610Z,82.93
2018-11-13T21:00:55.132Z,82.90
2018-11-13T21:03:26.365Z,82.86
2018-11-13T21:05:57.821Z,82.94
2018-11-13T21:08:28.853Z,83.03
2018-11-13T21:11:01.553Z,83.11
2018-11-13T21:13:32.678Z,83.14
2018-11-13T21:16:03.707Z,83.23
2018-11-13T21:18:35.242Z,83.39
2018-11-13T21:21:07.309Z,83.49
2018-11-13T21:23:38.970Z,83.51
2018-11-13T21:26:09.818Z,83.53
2018-11-13T21:28:40.827Z,83.71
2018-11-13T21:31:11.894Z,83.70
2018-11-13T21:33:43.038Z,83.75
2018-11-13T21:36:14.831Z,83.80
2018-11-13T21:38:46.568Z,83.99
2018-11-13T21:41:18.184Z,84.04
2018-11-13T21:43:49.526Z,84.09
2018-11-13T21:46:21.056Z,84.22
2018-11-13T21:48:52.177Z,84.36
2018-11-13T21:51:23.536Z,84.42
2018-11-13T21:53:54.884Z,84.46
2018-11-13T21:56:25.921Z,84.54
2018-11-13T21:58:57.983Z,84.60
2018-11-13T22:01:29.317Z,84.73
2018-11-13T22:04:00.737Z,84.76
2018-11-13T22:06:31.725Z,84.85
2018-11-13T22:09:03.229Z,84.85
2018-11-13T22:11:35.334Z,84.85
2018-11-13T22:14:06.765Z,84.86
2018-11-13T22:16:38.012Z,84.88
2018-11-13T22:19:09.385Z,84.95
2018-11-13T22:21:40.438Z,84.96
2018-11-13T22:24:11.464Z,84.99
2018-11-13T22:26:42.577Z,85.07
2018-11-13T22:29:14.595Z,85.07
2018-11-13T22:31:46.317Z,85.08
2018-11-13T22:34:17.696Z,85.13
2018-11-13T22:36:48.721Z,85.17
2018-11-13T22:39:21.000Z,85.18
2018-11-13T22:41:52.282Z,85.20
2018-11-13T22:44:24.227Z,85.26
2018-11-13T22:47:04.772Z,85.36
2018-11-13T22:49:36.657Z,85.49
2018-11-13T22:52:07.997Z,85.55
2018-11-13T22:54:39.599Z,85.61
2018-11-13T22:57:14.725Z,85.65
2018-11-13T22:59:46.388Z,85.74
2018-11-13T23:02:18.623Z,85.81
2018-11-13T23:04:49.631Z,85.92
2018-11-13T23:07:20.684Z,86.08
2018-11-13T23:09:53.290Z,86.13
2018-11-13T23:12:24.260Z,86.19
2018-11-13T23:14:55.451Z,86.28
2018-11-13T23:17:27.124Z,86.37
2018-11-13T23:19:58.604Z,86.46
2018-11-13T23:22:29.762Z,86.49
2018-11-13T23:25:00.978Z,86.52
2018-11-13T23:27:32.805Z,86.57
2018-11-13T23:30:05.287Z,86.63
2018-11-13T23:32:36.643Z,86.73
2018-11-13T23:35:08.507Z,86.83
2018-11-13T23:37:40.443Z,86.95
2018-11-13T23:40:13.529Z,87.00
2018-11-13T23:42:44.784Z,87.06
2018-11-13T23:45:16.884Z,87.15
2018-11-13T23:47:49.443Z,87.26
2018-11-13T23:50:20.911Z,87.39
2018-11-13T23:52:53.085Z,87.46
2018-11-13T23:55:24.138Z,87.56
2018-11-13T23:57:55.379Z,87.55
